Hoosick Falls, New York
Current Conditions -  °F | °C
As of 3:54 AM on Monday 24 Nov 2014 (Local Time) from KDDH Reporting Station
Light Rain Light Rain  
Wind Chill: 52°   Ceiling: 9000
Heat Index: 52°   Visibility: 9mi
Dew Point: 46°   Wind: 28mph
Humidity: 80%   Direction: 140°SE
Pressure: 29.81"   Gusts: 38mph
Location:  42.9°N, 73.35°W
Report Text: KDDH 240854Z AUTO 14024G33KT 9SM -RA FEW060 SCT080 OVC090 11/08 A2981 RMK AO2 PK WND 16037/0836 RAB17 SLP095 P0002 60002 T01110078 58048
Loading
Personal Weather Stations






























Interactive Weather Map New forecast layout! Learn more

10-Day Weather Forecast

Advertisements
Track Severe Weather on mobile